Airfield :







YOU CAN JOIN US ON...

 
LOGIN :

Register | Disclaimer

   EN    FR    IT 

 









Legend :    VFR   Marginal VFR   IFR   Intensive IFR   Very Intensive IFR
Visi :
Ceiling :
>= 8 km
>= 3000ft
5 to 8 km
1000 to 3000 ft
1500m to 5 km
500 to 1000 ft
800 to 1500m
200 to 500 ft
< 800m
< 200 ft
Symbols :   Thunderstorms  Fog  Heavy snow  Heavy precipitations  Wind > 20 kt







- Airport Elevation : 335 ft
- IATA code : BTV


KBTV - Burlington International

CURRENT METAR :
  • 191454Z 32005KT 10SM FEW040 FEW200 M12/M19 A3056 RMK AO2 SLP358 T11171189 51024

EXPIRED METARs :
  • 191354Z 03003KT 10SM FEW040 FEW200 M13/M18 A3055 RMK AO2 SLP355 MTN SE OBSCD T11331183
  • 191254Z 00000KT 10SM FEW038 FEW200 M15/M18 A3053 RMK AO2 SLP348 MTNS E-SE OBSCD T11501183

TAF KBTV
Valid from the 19 at 12:00 until the 20 at 12:00 UTC


191133Z 1912/2012 VRB04KT P6SM SKC
FM191500 32009KT P6SM SKC
FM200100 VRB04KT P6SM FEW220
KZBW FIR / North America



MET'MAP, your aeronautical weather chart ! - Copyright ORBIFLY December 2007 - Disclaimer

ORBIFLY MET'MAP TEAM :

Programming & Development : Alexandra Zaïnal
Concept & Development : Baudouin d'Aumeries
Co-Development & Prog : Marc-Olivier Méhu
Technical & hardware support : Manuel Goepfert

Contact : metmap@orbifly.com




SOURCES & CREDITS :

   NOAA